Estación Meteorológica Peña el Pijo (Robertgarden) [ 02/03/23 04:16:22 CET ]

Fecha Hora Presion(HPa) Temp (°C) Humedad % Rocio (°C) Viento ( m/s) Direccion Lluvia 1Hora(mm) Lluvia 24H(mm) LLuvia Total(mm)
2010-May-10 01:01:17 1003.100 10.4 67 4.5         112.92
2010-May-10 02:01:18 1003.200 8.9 73 4.3         112.92
2010-May-10 03:04:24 1003.500 7.9 78 4.3         112.92
2010-May-10 04:01:14 1003.100 8.8 77 5.0         112.92
2010-May-10 05:01:16 1002.900 9.2 79 5.7         112.92
2010-May-10 06:01:12 1002.900 9.2 79 5.7         112.92
2010-May-10 07:01:13 1003.100 8.7 80 5.4         112.92
2010-May-10 08:01:13 1003.100 10.0 78 6.3         112.92
2010-May-10 09:01:13 1003.000 14.8 57 6.3         112.92
2010-May-10 10:01:14 1003.000 16.4 49 5.2         112.92
2010-May-10 11:01:14 1002.800 18.6 41 5.1         112.92
2010-May-10 12:01:17 1002.600 18.1 42 4.9         112.92
2010-May-10 13:01:15 1002.600 17.9 45 5.7         112.92
2010-May-10 14:01:14 1002.100 20.7 37 5.4         112.92
2010-May-10 15:01:12 1001.600 19.6 38 4.8         112.92
2010-May-10 16:01:16 1002.000 19.0 39 4.7         112.92
2010-May-10 17:01:17 1001.300 18.9 40 5.0         112.92
2010-May-10 18:01:13 1002.100 17.8 45 5.6 1.1 ESE     112.92
2010-May-10 19:01:17 1002.200 13.9 61 6.5         112.92
2010-May-10 20:01:13 1002.700 13.8 56 5.2         112.92
2010-May-10 21:01:16 1002.800 12.6 60 5.0         112.92
2010-May-10 22:01:13 1003.300 10.9 65 4.5         112.92
2010-May-10 23:01:10 1003.700 9.2 73 4.6         112.92

Temperatura Máxima:20°    Temperatura Mínima:
Presión Máxima:1003.700 Hpa    Presión Mínima:1001.300 Hpa


Volver